Flight Track Log - Related Links

Times and Time Zones

All times are in EDT time to prevent confusion due to time zone crossing. See the DAL1981 flight status page for this flight to view local times or setup timezone preferences in your user account.

Time Position Orientation Groundspeed Altitude Reporting Facility
EDT Latitude Longitude Course Direction KTS MPH feet Rate Location/Type
Thu 06:18:18 AM 42.7736 -73.8092 180° South 165 190 1,500  Level Boston Center
Thu 06:19:18 AM 42.8336 -73.8358 342° North 243 280 3,200 2,328 Climbing Boston Center
Thu 06:20:32 AM 42.8950 -73.9194 315° West 264 304 6,700 2,731 Climbing Boston Center
Thu 06:21:00 AM 42.4141 -74.2692 198° South  Level Estimated
Thu 06:21:32 AM 42.9464 -73.9889 315° West 273 314 9,300  Level Boston Center
Thu 06:22:00 AM 42.3300 -74.3852 180° South  Level Estimated
Thu 06:22:32 AM 42.9508 -74.1081 273° West 278 320 11,100  Level Boston Center
Thu 06:23:00 AM 42.2459 -74.5010 180° South  Level Estimated
Thu 06:23:32 AM 42.8808 -74.1883 220° Southwest 341 392 12,600  Level Boston Center
Thu 06:24:32 AM 42.7636 -74.2189 191° South 381 438 15,100 2,250 Climbing Boston Center
Thu 06:25:32 AM 42.6622 -74.1822 165° South 387 445 17,100 1,900 Climbing Boston Center
Thu 06:26:32 AM 42.5378 -74.1392 166° South 416 479 18,900 1,750 Climbing Boston Center
Thu 06:27:32 AM 42.4194 -74.0994 166° South 428 493 20,600 1,550 Climbing Boston Center
Thu 06:28:32 AM 42.2950 -74.0567 166° South 442 509 22,000 1,500 Climbing Boston Center
Thu 06:29:32 AM 42.1600 -74.0394 175° South 468 539 23,600 1,600 Climbing Boston Center
Thu 06:30:32 AM 42.0264 -74.0472 182° South 475 547 25,200 1,800 Climbing Boston Center
Thu 06:31:32 AM 41.8908 -74.0575 183° South 486 559 27,200 1,750 Climbing Boston Center
Thu 06:32:32 AM 41.7761 -74.0575 180° South 486 559 28,700 1,306 Climbing Boston Center
Thu 06:34:45 AM 41.4653 -74.0767 183° South 480 552 31,400 1,082 Climbing New York Center
Thu 06:35:46 AM 41.3428 -74.1369 200° South 475 547 32,200 787 Climbing New York Center
Thu 06:36:47 AM 41.2394 -74.2503 220° Southwest 463 533 33,000 908 Climbing New York Center
Thu 06:37:45 AM 41.1439 -74.3778 225° Southwest 474 545 34,000 508 Climbing New York Center
Thu 06:38:45 AM 41.0525 -74.5047 226° Southwest 479 551 34,000  Level New York Center
Thu 06:39:45 AM 40.9592 -74.6233 224° Southwest 479 551 34,000  Level New York Center
Thu 06:40:46 AM 40.8656 -74.7442 224° Southwest 474 545 34,000  Level New York Center
Thu 06:41:45 AM 40.7742 -74.8594 224° Southwest 469 540 34,000  Level New York Center
Thu 06:42:45 AM 40.6803 -74.9825 225° Southwest 475 547 34,000  Level New York Center
Thu 06:43:47 AM 40.5883 -75.0997 224° Southwest 475 547 34,000  Level New York Center
Thu 06:44:47 AM 40.4944 -75.2222 225° Southwest 475 547 34,000  Level New York Center
Thu 06:45:45 AM 40.4003 -75.3386 223° Southwest 475 547 34,000  Level New York Center
Thu 06:46:47 AM 40.3081 -75.4578 225° Southwest 475 547 34,000  Level New York Center
Thu 06:47:47 AM 40.2244 -75.5692 226° Southwest 475 547 34,000  Level New York Center
Thu 06:48:45 AM 40.1539 -75.7081 236° Southwest 475 547 34,000  Level New York Center
Thu 06:49:45 AM 40.0814 -75.8469 236° Southwest 470 541 34,000  Level New York Center
Thu 06:50:46 AM 40.0069 -75.9797 234° Southwest 470 541 34,000  Level New York Center
Thu 06:51:46 AM 39.9261 -76.1089 231° Southwest 470 541 34,000  Level New York Center
Thu 06:52:47 AM 39.8411 -76.2350 229° Southwest 465 535 34,000  Level New York Center
Thu 06:53:59 AM 39.7403 -76.3875 229° Southwest 470 541 34,000  Level Washington Center
Thu 06:54:57 AM 39.6642 -76.5161 232° Southwest 470 541 34,000  Level Washington Center
Thu 06:55:59 AM 39.5736 -76.6414 227° Southwest 470 541 34,000  Level Washington Center
Thu 06:57:00 AM 39.4911 -76.7639 229° Southwest 470 541 34,000  Level Washington Center
Thu 06:57:58 AM 39.4108 -76.8889 230° Southwest 470 541 34,000  Level Washington Center
Thu 06:59:00 AM 39.3303 -77.0108 230° Southwest 459 528 34,000  Level Washington Center
Thu 07:00:00 AM 39.2494 -77.1353 230° Southwest 459 528 34,000  Level Washington Center
Thu 07:00:57 AM 39.1686 -77.2594 230° Southwest 459 528 34,000  Level Washington Center
Thu 07:01:58 AM 39.0878 -77.3781 229° Southwest 454 522 34,000  Level Washington Center
Thu 07:02:59 AM 39.0089 -77.4989 230° Southwest 449 517 34,000  Level Washington Center
Thu 07:04:00 AM 38.9275 -77.6197 229° Southwest 455 524 34,000  Level Washington Center
Thu 07:04:57 AM 38.8378 -77.7531 229° Southwest 450 518 34,000  Level Washington Center
Thu 07:05:59 AM 38.7542 -77.8756 229° Southwest 457 526 34,000  Level Washington Center
Thu 07:07:00 AM 38.6725 -77.9956 229° Southwest 452 520 34,000  Level Washington Center
Thu 07:08:00 AM 38.5931 -78.1150 230° Southwest 452 520 34,000  Level Washington Center
Thu 07:08:57 AM 38.5111 -78.2317 228° Southwest 452 520 34,000  Level Washington Center
Thu 07:09:59 AM 38.4292 -78.3533 229° Southwest 452 520 34,000  Level Washington Center
Thu 07:10:59 AM 38.3450 -78.4747 229° Southwest 452 520 34,000  Level Washington Center
Thu 07:12:00 AM 38.2822 -78.5675 229° Southwest 452 520 34,000  Level Washington Center
Thu 07:13:00 AM 38.1956 -78.6961 229° Southwest 452 520 34,000  Level Washington Center
Thu 07:13:58 AM 38.1047 -78.8217 227° Southwest 447 514 34,000  Level Washington Center
Thu 07:14:59 AM 38.0244 -78.9369 229° Southwest 447 514 34,000  Level Washington Center
Thu 07:15:59 AM 37.9397 -79.0542 228° Southwest 452 520 34,000  Level Washington Center
Thu 07:16:57 AM 37.8614 -79.1717 230° Southwest 452 520 34,000  Level Washington Center
Thu 07:17:59 AM 37.7831 -79.2756 226° Southwest 452 520 34,000  Level Washington Center
Thu 07:18:59 AM 37.6914 -79.3997 227° Southwest 452 520 34,000  Level Washington Center
Thu 07:20:00 AM 37.6172 -79.5036 228° Southwest 452 520 34,000  Level Washington Center
Thu 07:20:58 AM 37.5256 -79.6272 227° Southwest 452 520 34,000  Level Washington Center
Thu 07:21:59 AM 37.4444 -79.7381 227° Southwest 447 514 34,000  Level Washington Center
Thu 07:22:59 AM 37.3678 -79.8436 228° Southwest 452 520 34,000  Level Washington Center
Thu 07:24:37 AM 37.2233 -80.0381 227° Southwest 427 491 34,000  Level Atlanta Center
Thu 07:25:37 AM 37.1414 -80.1464 227° Southwest 427 491 34,000  Level Atlanta Center
Thu 07:26:37 AM 37.0614 -80.2569 228° Southwest 427 491 34,000  Level Atlanta Center
Thu 07:27:37 AM 36.9814 -80.3647 227° Southwest 434 499 34,000  Level Atlanta Center
Thu 07:28:37 AM 36.9092 -80.4617 227° Southwest 434 499 34,000  Level Atlanta Center
Thu 07:29:37 AM 36.8267 -80.5717 227° Southwest 434 499 34,000  Level Atlanta Center
Thu 07:30:37 AM 36.7403 -80.6867 227° Southwest 429 494 34,000  Level Atlanta Center
Thu 07:31:37 AM 36.6578 -80.7989 228° Southwest 429 494 34,000  Level Atlanta Center
Thu 07:32:37 AM 36.5750 -80.9056 226° Southwest 435 501 34,000  Level Atlanta Center
Thu 07:33:37 AM 36.4922 -81.0147 227° Southwest 435 501 34,000  Level Atlanta Center
Thu 07:34:37 AM 36.4075 -81.1264 227° Southwest 435 501 34,000  Level Atlanta Center
Thu 07:35:37 AM 36.3244 -81.2350 227° Southwest 440 506 34,000  Level Atlanta Center
Thu 07:36:37 AM 36.2414 -81.3458 227° Southwest 435 501 34,000  Level Atlanta Center
Thu 07:37:37 AM 36.1686 -81.4436 227° Southwest 435 501 34,000  Level Atlanta Center
Thu 07:38:37 AM 36.0831 -81.5492 225° Southwest 435 501 34,000  Level Atlanta Center
Thu 07:39:37 AM 35.9978 -81.6594 226° Southwest 435 501 34,000  Level Atlanta Center
Thu 07:40:37 AM 35.9164 -81.7722 228° Southwest 435 501 34,000  Level Atlanta Center
Thu 07:41:37 AM 35.8328 -81.8744 225° Southwest 430 495 34,000  Level Atlanta Center
Thu 07:42:37 AM 35.7511 -81.9789 226° Southwest 435 501 34,000  Level Atlanta Center
Thu 07:43:37 AM 35.6672 -82.0858 226° Southwest 429 494 34,000  Level Atlanta Center
Thu 07:44:37 AM 35.5792 -82.1850 223° Southwest 429 494 34,000 -450 Level Atlanta Center
Thu 07:45:37 AM 35.4931 -82.2864 224° Southwest 429 494 33,100 -1,200 Descending Atlanta Center
Thu 07:46:37 AM 35.4025 -82.3853 222° Southwest 435 501 31,600 -1,550 Descending Atlanta Center
Thu 07:47:37 AM 35.3081 -82.4939 223° Southwest 435 501 30,000 -1,900 Descending Atlanta Center
Thu 07:48:37 AM 35.2175 -82.5947 222° Southwest 440 506 27,800 -1,900 Descending Atlanta Center
Thu 07:49:37 AM 35.1267 -82.6978 223° Southwest 440 506 26,200 -1,400 Descending Atlanta Center
Thu 07:50:37 AM 35.0361 -82.7983 222° Southwest 440 506 25,000 -1,150 Descending Atlanta Center
Thu 07:51:37 AM 34.9514 -82.8933 223° Southwest 435 501 23,900 -1,350 Descending Atlanta Center
Thu 07:52:37 AM 34.8728 -82.9781 221° Southwest 429 494 22,300 -2,300 Descending Atlanta Center
Thu 07:53:37 AM 34.7881 -83.0753 223° Southwest 424 488 19,300 -2,750 Descending Atlanta Center
Thu 07:54:37 AM 34.7033 -83.1697 223° Southwest 424 488 16,800 -1,550 Descending Atlanta Center
Thu 07:55:37 AM 34.6119 -83.2689 222° Southwest 412 474 16,200 -450 Descending Atlanta Center
Thu 07:56:37 AM 34.5311 -83.3606 223° Southwest 407 468 15,900 -450 Descending Atlanta Center
Thu 07:57:37 AM 34.4503 -83.4544 224° Southwest 407 468 15,300 -450 Descending Atlanta Center
Thu 07:58:37 AM 34.3650 -83.5406 220° Southwest 407 468 15,000 -400 Descending Atlanta Center
Thu 07:59:37 AM 34.2861 -83.6289 223° Southwest 407 468 14,500 -500 Descending Atlanta Center
Thu 08:00:37 AM 34.2133 -83.7097 223° Southwest 402 463 14,000 -250 Descending Atlanta Center
Thu 08:01:37 AM 34.1300 -83.7978 221° Southwest 402 463 14,000 -393 Level Atlanta Center
Thu 08:02:39 AM 34.0333 -83.9000 221° Southwest 389 448 13,200 -931 Descending Atlanta TRACON
Thu 08:03:33 AM 33.9667 -83.9667 220° Southwest 385 443 12,200 -632 Descending Atlanta TRACON
Thu 08:04:33 AM 33.8833 -84.0500 220° Southwest 354 407 12,000 -100 Descending Atlanta TRACON
Thu 08:05:33 AM 33.8167 -84.1167 220° Southwest 277 319 12,000  Level Atlanta TRACON
Thu 08:06:27 AM 33.7667 -84.1500 209° Southwest 253 291 12,000  Level Atlanta TRACON
Thu 08:07:27 AM 33.7333 -84.2167 239° Southwest 267 307 12,000 -250 Level Atlanta TRACON
Thu 08:08:27 AM 33.7333 -84.3167 270° West 275 316 11,500 -842 Descending Atlanta TRACON
Thu 08:09:21 AM 33.7333 -84.3833 270° West 268 308 10,400 -1,211 Descending Atlanta TRACON
Thu 08:10:21 AM 33.7333 -84.4667 270° West 252 290 9,200 -1,450 Descending Atlanta TRACON
Thu 08:11:21 AM 33.7333 -84.5500 270° West 240 276 7,500 -1,750 Descending Atlanta TRACON
Thu 08:12:21 AM 33.7333 -84.6333 270° West 248 285 5,700 -1,211 Descending Atlanta TRACON
Thu 08:13:15 AM 33.7333 -84.7000 270° West 223 257 5,200 -385 Descending Atlanta TRACON
Thu 08:14:10 AM 33.7333 -84.7667 270° West 195 224 5,000 -105 Descending Atlanta TRACON
Thu 08:15:09 AM 33.7333 -84.8333 270° West 197 227 5,000  Level Atlanta TRACON
Thu 08:16:04 AM 33.7500 -84.8833 292° West 197 227 5,000  Level Atlanta TRACON
Thu 08:17:03 AM 33.7333 -84.9500 253° West 193 222 5,000  Level Atlanta TRACON
Thu 08:18:03 AM 33.7000 -84.9500 180° South 156 180 5,000  Level Atlanta TRACON
Thu 08:19:03 AM 33.6667 -84.9333 157° South 154 177 5,000  Level Atlanta TRACON
Thu 08:19:58 AM 33.6500 -84.9000 121° Southeast 147 169 5,000  Level Atlanta TRACON
Thu 08:20:58 AM 33.6500 -84.8500 90° East 144 166 5,000  Level Atlanta TRACON
Thu 08:21:58 AM 33.6500 -84.8000 90° East 146 168 5,000  Level Atlanta TRACON
Thu 08:22:57 AM 33.6500 -84.7500 90° East 143 165 5,000  Level Atlanta TRACON
Thu 08:23:57 AM 33.6500 -84.7000 90° East 146 168 5,000 -150 Level Atlanta TRACON
Thu 08:24:57 AM 33.6500 -84.6500 90° East 144 166 4,700 -550 Descending Atlanta TRACON
Thu 08:25:57 AM 33.6500 -84.6000 90° East 130 150 3,900 -750 Descending Atlanta TRACON
Thu 08:26:57 AM 33.6500 -84.5667 90° East 129 148 3,200 -700 Descending Atlanta TRACON

Login

Don't have an account? Register now (free) for customized features, flight alerts, and more!